sensor_id;sensor_type;location;lat;lon;timestamp;temperature;humidity
5705;DHT22;2877;48.238;11.160;2024-03-08T00:00:16;0.50;99.90
5705;DHT22;2877;48.238;11.160;2024-03-08T00:02:44;0.50;99.90
5705;DHT22;2877;48.238;11.160;2024-03-08T00:05:10;0.40;99.90
5705;DHT22;2877;48.238;11.160;2024-03-08T00:07:37;0.40;99.90
5705;DHT22;2877;48.238;11.160;2024-03-08T00:10:04;0.40;99.90
5705;DHT22;2877;48.238;11.160;2024-03-08T00:12:30;0.40;99.90
5705;DHT22;2877;48.238;11.160;2024-03-08T00:14:56;0.40;99.90
5705;DHT22;2877;48.238;11.160;2024-03-08T00:17:21;0.30;99.90
5705;DHT22;2877;48.238;11.160;2024-03-08T00:19:50;0.30;99.90
5705;DHT22;2877;48.238;11.160;2024-03-08T00:22:17;0.30;99.90
5705;DHT22;2877;48.238;11.160;2024-03-08T00:24:42;0.30;99.90
5705;DHT22;2877;48.238;11.160;2024-03-08T00:27:08;0.30;99.90
5705;DHT22;2877;48.238;11.160;2024-03-08T00:29:34;0.20;99.90
5705;DHT22;2877;48.238;11.160;2024-03-08T00:32:00;0.20;99.90
5705;DHT22;2877;48.238;11.160;2024-03-08T00:34:26;0.20;99.90
5705;DHT22;2877;48.238;11.160;2024-03-08T00:36:52;0.20;99.90
5705;DHT22;2877;48.238;11.160;2024-03-08T00:39:18;0.20;99.90
5705;DHT22;2877;48.238;11.160;2024-03-08T00:41:45;0.20;99.90
5705;DHT22;2877;48.238;11.160;2024-03-08T00:44:11;0.20;99.90
5705;DHT22;2877;48.238;11.160;2024-03-08T00:46:36;0.20;99.90
5705;DHT22;2877;48.238;11.160;2024-03-08T00:49:02;0.20;99.90
5705;DHT22;2877;48.238;11.160;2024-03-08T00:51:27;0.10;99.90
5705;DHT22;2877;48.238;11.160;2024-03-08T00:53:53;0.10;99.90
5705;DHT22;2877;48.238;11.160;2024-03-08T00:56:18;0.10;99.90
5705;DHT22;2877;48.238;11.160;2024-03-08T00:58:44;0.10;99.90
5705;DHT22;2877;48.238;11.160;2024-03-08T01:01:09;0.00;99.90
5705;DHT22;2877;48.238;11.160;2024-03-08T01:03:36;0.10;99.90
5705;DHT22;2877;48.238;11.160;2024-03-08T01:06:01;0.10;99.90
5705;DHT22;2877;48.238;11.160;2024-03-08T01:08:27;0.00;99.90
5705;DHT22;2877;48.238;11.160;2024-03-08T01:10:53;-0.10;99.90
5705;DHT22;2877;48.238;11.160;2024-03-08T01:13:19;0.00;99.90
5705;DHT22;2877;48.238;11.160;2024-03-08T01:15:45;-0.10;99.90
5705;DHT22;2877;48.238;11.160;2024-03-08T01:18:11;-0.10;99.90
5705;DHT22;2877;48.238;11.160;2024-03-08T01:20:37;-0.10;99.90
5705;DHT22;2877;48.238;11.160;2024-03-08T01:23:02;-0.10;99.90
5705;DHT22;2877;48.238;11.160;2024-03-08T01:25:28;-0.10;99.90
5705;DHT22;2877;48.238;11.160;2024-03-08T01:27:54;-0.10;99.90
5705;DHT22;2877;48.238;11.160;2024-03-08T01:30:20;-0.10;99.90
5705;DHT22;2877;48.238;11.160;2024-03-08T01:32:45;-0.10;99.90
5705;DHT22;2877;48.238;11.160;2024-03-08T01:35:11;-0.10;99.90
5705;DHT22;2877;48.238;11.160;2024-03-08T01:37:36;-0.10;99.90
5705;DHT22;2877;48.238;11.160;2024-03-08T01:40:03;-0.20;99.90
5705;DHT22;2877;48.238;11.160;2024-03-08T01:42:29;-0.20;99.90
5705;DHT22;2877;48.238;11.160;2024-03-08T01:44:54;-0.20;99.90
5705;DHT22;2877;48.238;11.160;2024-03-08T01:47:21;-0.20;99.90
5705;DHT22;2877;48.238;11.160;2024-03-08T01:49:51;-0.20;99.90
5705;DHT22;2877;48.238;11.160;2024-03-08T01:52:18;-0.20;99.90
5705;DHT22;2877;48.238;11.160;2024-03-08T01:54:46;-0.30;99.90
5705;DHT22;2877;48.238;11.160;2024-03-08T01:57:12;-0.30;99.90
5705;DHT22;2877;48.238;11.160;2024-03-08T01:59:39;-0.30;99.90
5705;DHT22;2877;48.238;11.160;2024-03-08T02:02:06;-0.30;99.90
5705;DHT22;2877;48.238;11.160;2024-03-08T02:04:34;-0.30;99.90
5705;DHT22;2877;48.238;11.160;2024-03-08T02:07:01;-0.30;99.90
5705;DHT22;2877;48.238;11.160;2024-03-08T02:09:27;-0.30;99.90
5705;DHT22;2877;48.238;11.160;2024-03-08T02:11:53;-0.30;99.90
5705;DHT22;2877;48.238;11.160;2024-03-08T02:14:20;-0.40;99.90
5705;DHT22;2877;48.238;11.160;2024-03-08T02:16:45;-0.40;99.90
5705;DHT22;2877;48.238;11.160;2024-03-08T02:19:11;-0.40;99.90
5705;DHT22;2877;48.238;11.160;2024-03-08T02:21:36;-0.40;99.90
5705;DHT22;2877;48.238;11.160;2024-03-08T02:24:04;-0.40;99.90
5705;DHT22;2877;48.238;11.160;2024-03-08T02:26:29;-0.40;99.90
5705;DHT22;2877;48.238;11.160;2024-03-08T02:28:55;-0.40;99.90
5705;DHT22;2877;48.238;11.160;2024-03-08T02:31:21;-0.40;99.90
5705;DHT22;2877;48.238;11.160;2024-03-08T02:33:47;-0.40;99.90
5705;DHT22;2877;48.238;11.160;2024-03-08T02:36:13;-0.50;99.90
5705;DHT22;2877;48.238;11.160;2024-03-08T02:38:38;-0.50;99.90
5705;DHT22;2877;48.238;11.160;2024-03-08T02:41:06;-0.50;99.90
5705;DHT22;2877;48.238;11.160;2024-03-08T02:43:31;-0.50;99.90
5705;DHT22;2877;48.238;11.160;2024-03-08T02:45:57;-0.50;99.90
5705;DHT22;2877;48.238;11.160;2024-03-08T02:48:22;-0.50;99.90
5705;DHT22;2877;48.238;11.160;2024-03-08T02:50:48;-0.50;99.90
5705;DHT22;2877;48.238;11.160;2024-03-08T02:53:14;-0.50;99.90
5705;DHT22;2877;48.238;11.160;2024-03-08T02:55:40;-0.50;99.90
5705;DHT22;2877;48.238;11.160;2024-03-08T02:58:07;-0.50;99.90
5705;DHT22;2877;48.238;11.160;2024-03-08T03:00:38;-0.50;99.90
5705;DHT22;2877;48.238;11.160;2024-03-08T03:03:04;-0.50;99.90
5705;DHT22;2877;48.238;11.160;2024-03-08T03:05:30;-0.50;99.90
5705;DHT22;2877;48.238;11.160;2024-03-08T03:07:56;-0.50;99.90
5705;DHT22;2877;48.238;11.160;2024-03-08T03:10:23;-0.50;99.90
5705;DHT22;2877;48.238;11.160;2024-03-08T03:12:50;-0.60;99.90
5705;DHT22;2877;48.238;11.160;2024-03-08T03:15:16;-0.50;99.90
5705;DHT22;2877;48.238;11.160;2024-03-08T03:17:48;-0.60;99.90
5705;DHT22;2877;48.238;11.160;2024-03-08T03:20:14;-0.60;99.90
5705;DHT22;2877;48.238;11.160;2024-03-08T03:22:40;-0.60;99.90
5705;DHT22;2877;48.238;11.160;2024-03-08T03:25:09;-0.60;99.90
5705;DHT22;2877;48.238;11.160;2024-03-08T03:27:35;-0.60;99.90
5705;DHT22;2877;48.238;11.160;2024-03-08T03:30:02;-0.60;99.90
5705;DHT22;2877;48.238;11.160;2024-03-08T03:32:49;-0.60;99.90
5705;DHT22;2877;48.238;11.160;2024-03-08T03:35:17;-0.60;99.90
5705;DHT22;2877;48.238;11.160;2024-03-08T03:37:43;-0.60;99.90
5705;DHT22;2877;48.238;11.160;2024-03-08T03:40:16;-0.60;99.90
5705;DHT22;2877;48.238;11.160;2024-03-08T03:42:44;-0.60;99.90
5705;DHT22;2877;48.238;11.160;2024-03-08T03:45:11;-0.60;99.90
5705;DHT22;2877;48.238;11.160;2024-03-08T03:47:36;-0.60;99.90
5705;DHT22;2877;48.238;11.160;2024-03-08T03:50:04;-0.70;99.90
5705;DHT22;2877;48.238;11.160;2024-03-08T03:52:30;-0.70;99.90
5705;DHT22;2877;48.238;11.160;2024-03-08T03:54:55;-0.70;99.90
5705;DHT22;2877;48.238;11.160;2024-03-08T03:57:22;-0.70;99.90
5705;DHT22;2877;48.238;11.160;2024-03-08T03:59:48;-0.70;99.90
5705;DHT22;2877;48.238;11.160;2024-03-08T04:02:14;-0.70;99.90
5705;DHT22;2877;48.238;11.160;2024-03-08T04:04:40;-0.70;99.90
5705;DHT22;2877;48.238;11.160;2024-03-08T04:07:05;-0.70;99.90
5705;DHT22;2877;48.238;11.160;2024-03-08T04:09:31;-0.70;99.90
5705;DHT22;2877;48.238;11.160;2024-03-08T04:11:57;-0.70;99.90
5705;DHT22;2877;48.238;11.160;2024-03-08T04:14:23;-0.70;99.90
5705;DHT22;2877;48.238;11.160;2024-03-08T04:16:48;-0.80;99.90
5705;DHT22;2877;48.238;11.160;2024-03-08T04:19:14;-0.80;99.90
5705;DHT22;2877;48.238;11.160;2024-03-08T04:21:39;-0.80;99.90
5705;DHT22;2877;48.238;11.160;2024-03-08T04:24:05;-0.80;99.90
5705;DHT22;2877;48.238;11.160;2024-03-08T04:26:31;-0.80;99.90
5705;DHT22;2877;48.238;11.160;2024-03-08T04:28:57;-0.80;99.90
5705;DHT22;2877;48.238;11.160;2024-03-08T04:31:22;-0.80;99.90
5705;DHT22;2877;48.238;11.160;2024-03-08T04:33:48;-0.90;99.90
5705;DHT22;2877;48.238;11.160;2024-03-08T04:36:13;-0.90;99.90
5705;DHT22;2877;48.238;11.160;2024-03-08T04:38:40;-0.90;99.90
5705;DHT22;2877;48.238;11.160;2024-03-08T04:41:06;-0.90;99.90
5705;DHT22;2877;48.238;11.160;2024-03-08T04:43:32;-0.80;99.90
5705;DHT22;2877;48.238;11.160;2024-03-08T04:45:57;-0.80;99.90
5705;DHT22;2877;48.238;11.160;2024-03-08T04:48:23;-0.80;99.90
5705;DHT22;2877;48.238;11.160;2024-03-08T04:50:52;-0.80;99.90
5705;DHT22;2877;48.238;11.160;2024-03-08T04:53:19;-0.70;99.90
5705;DHT22;2877;48.238;11.160;2024-03-08T04:55:45;-0.70;99.90
5705;DHT22;2877;48.238;11.160;2024-03-08T04:58:10;-0.70;99.90
5705;DHT22;2877;48.238;11.160;2024-03-08T05:00:36;-0.70;99.90
5705;DHT22;2877;48.238;11.160;2024-03-08T05:03:01;-0.60;99.90
5705;DHT22;2877;48.238;11.160;2024-03-08T05:05:27;-0.60;99.90
5705;DHT22;2877;48.238;11.160;2024-03-08T05:07:54;-0.50;99.90
5705;DHT22;2877;48.238;11.160;2024-03-08T05:10:20;-0.50;99.90
5705;DHT22;2877;48.238;11.160;2024-03-08T05:12:45;-0.40;99.90
5705;DHT22;2877;48.238;11.160;2024-03-08T05:15:11;-0.30;99.90
5705;DHT22;2877;48.238;11.160;2024-03-08T05:17:37;-0.30;99.90
5705;DHT22;2877;48.238;11.160;2024-03-08T05:20:02;-0.30;99.90
5705;DHT22;2877;48.238;11.160;2024-03-08T05:22:29;-0.30;99.90
5705;DHT22;2877;48.238;11.160;2024-03-08T05:24:54;-0.20;99.90
5705;DHT22;2877;48.238;11.160;2024-03-08T05:27:20;-0.20;99.90
5705;DHT22;2877;48.238;11.160;2024-03-08T05:29:46;-0.20;99.90
5705;DHT22;2877;48.238;11.160;2024-03-08T05:32:12;-0.10;99.90
5705;DHT22;2877;48.238;11.160;2024-03-08T05:34:37;-0.10;99.90
5705;DHT22;2877;48.238;11.160;2024-03-08T05:37:03;-0.10;99.90
5705;DHT22;2877;48.238;11.160;2024-03-08T05:39:29;-0.10;99.90
5705;DHT22;2877;48.238;11.160;2024-03-08T05:41:55;0.00;99.90
5705;DHT22;2877;48.238;11.160;2024-03-08T05:44:21;0.00;99.90
5705;DHT22;2877;48.238;11.160;2024-03-08T05:46:47;0.10;99.90
5705;DHT22;2877;48.238;11.160;2024-03-08T05:49:12;0.00;99.90
5705;DHT22;2877;48.238;11.160;2024-03-08T05:51:39;0.10;99.90
5705;DHT22;2877;48.238;11.160;2024-03-08T05:54:07;0.10;99.90
5705;DHT22;2877;48.238;11.160;2024-03-08T05:56:35;0.10;99.90
5705;DHT22;2877;48.238;11.160;2024-03-08T05:59:01;0.10;99.90
5705;DHT22;2877;48.238;11.160;2024-03-08T06:01:27;0.10;99.90
5705;DHT22;2877;48.238;11.160;2024-03-08T06:03:54;0.10;99.90
5705;DHT22;2877;48.238;11.160;2024-03-08T06:06:23;0.10;99.90
5705;DHT22;2877;48.238;11.160;2024-03-08T06:08:49;0.20;99.90
5705;DHT22;2877;48.238;11.160;2024-03-08T06:11:15;0.20;99.90
5705;DHT22;2877;48.238;11.160;2024-03-08T06:13:42;0.20;99.90
5705;DHT22;2877;48.238;11.160;2024-03-08T06:16:08;0.20;99.90
5705;DHT22;2877;48.238;11.160;2024-03-08T06:18:34;0.20;99.90
5705;DHT22;2877;48.238;11.160;2024-03-08T06:21:05;0.20;99.90
5705;DHT22;2877;48.238;11.160;2024-03-08T06:23:34;0.20;99.90
5705;DHT22;2877;48.238;11.160;2024-03-08T06:26:04;0.30;99.90
5705;DHT22;2877;48.238;11.160;2024-03-08T06:28:29;0.30;99.90
5705;DHT22;2877;48.238;11.160;2024-03-08T06:30:55;0.30;99.90
5705;DHT22;2877;48.238;11.160;2024-03-08T06:33:20;0.30;99.90
5705;DHT22;2877;48.238;11.160;2024-03-08T06:35:46;0.40;99.90
5705;DHT22;2877;48.238;11.160;2024-03-08T06:38:11;0.40;99.90
5705;DHT22;2877;48.238;11.160;2024-03-08T06:40:37;0.40;99.90
5705;DHT22;2877;48.238;11.160;2024-03-08T06:43:03;0.40;99.90
5705;DHT22;2877;48.238;11.160;2024-03-08T06:45:31;0.50;99.90
5705;DHT22;2877;48.238;11.160;2024-03-08T06:47:57;0.50;99.90
5705;DHT22;2877;48.238;11.160;2024-03-08T06:50:22;0.50;99.90
5705;DHT22;2877;48.238;11.160;2024-03-08T06:52:48;0.50;99.90
5705;DHT22;2877;48.238;11.160;2024-03-08T06:55:21;0.60;99.90
5705;DHT22;2877;48.238;11.160;2024-03-08T06:57:47;0.60;99.90
5705;DHT22;2877;48.238;11.160;2024-03-08T07:00:12;0.50;99.90
5705;DHT22;2877;48.238;11.160;2024-03-08T07:02:46;0.50;99.90
5705;DHT22;2877;48.238;11.160;2024-03-08T07:05:14;0.60;99.90
5705;DHT22;2877;48.238;11.160;2024-03-08T07:07:40;0.50;99.90
5705;DHT22;2877;48.238;11.160;2024-03-08T07:10:06;0.50;99.90
5705;DHT22;2877;48.238;11.160;2024-03-08T07:12:37;0.60;99.90
5705;DHT22;2877;48.238;11.160;2024-03-08T07:15:02;0.60;99.90
5705;DHT22;2877;48.238;11.160;2024-03-08T07:17:28;0.70;99.90
5705;DHT22;2877;48.238;11.160;2024-03-08T07:19:53;0.70;99.90
5705;DHT22;2877;48.238;11.160;2024-03-08T07:22:19;0.70;99.90
5705;DHT22;2877;48.238;11.160;2024-03-08T07:24:45;0.70;99.90
5705;DHT22;2877;48.238;11.160;2024-03-08T07:27:19;0.80;99.90
5705;DHT22;2877;48.238;11.160;2024-03-08T07:29:45;0.80;99.90
5705;DHT22;2877;48.238;11.160;2024-03-08T07:32:11;0.90;99.90
5705;DHT22;2877;48.238;11.160;2024-03-08T07:34:43;0.90;99.90
5705;DHT22;2877;48.238;11.160;2024-03-08T07:37:09;1.00;99.90
5705;DHT22;2877;48.238;11.160;2024-03-08T07:39:38;1.00;99.90
5705;DHT22;2877;48.238;11.160;2024-03-08T07:42:04;1.10;99.90
5705;DHT22;2877;48.238;11.160;2024-03-08T07:44:30;1.10;99.90
5705;DHT22;2877;48.238;11.160;2024-03-08T07:46:57;1.20;99.90
5705;DHT22;2877;48.238;11.160;2024-03-08T07:49:22;1.30;99.90
5705;DHT22;2877;48.238;11.160;2024-03-08T07:51:49;1.30;99.90
5705;DHT22;2877;48.238;11.160;2024-03-08T07:54:15;1.30;99.90
5705;DHT22;2877;48.238;11.160;2024-03-08T07:56:40;1.40;99.90
5705;DHT22;2877;48.238;11.160;2024-03-08T07:59:06;1.50;99.90
5705;DHT22;2877;48.238;11.160;2024-03-08T08:01:32;1.50;99.90
5705;DHT22;2877;48.238;11.160;2024-03-08T08:03:58;1.50;99.90
5705;DHT22;2877;48.238;11.160;2024-03-08T08:06:24;1.50;99.90
5705;DHT22;2877;48.238;11.160;2024-03-08T08:08:50;1.50;99.90
5705;DHT22;2877;48.238;11.160;2024-03-08T08:11:16;1.50;99.90
5705;DHT22;2877;48.238;11.160;2024-03-08T08:13:41;1.60;99.90
5705;DHT22;2877;48.238;11.160;2024-03-08T08:16:08;1.50;99.90
5705;DHT22;2877;48.238;11.160;2024-03-08T08:18:34;1.70;99.90
5705;DHT22;2877;48.238;11.160;2024-03-08T08:21:00;1.80;99.90
5705;DHT22;2877;48.238;11.160;2024-03-08T08:23:26;1.80;99.90
5705;DHT22;2877;48.238;11.160;2024-03-08T08:25:52;1.80;99.90
5705;DHT22;2877;48.238;11.160;2024-03-08T08:28:18;1.80;99.90
5705;DHT22;2877;48.238;11.160;2024-03-08T08:30:44;1.70;99.90
5705;DHT22;2877;48.238;11.160;2024-03-08T08:33:10;1.80;99.90
5705;DHT22;2877;48.238;11.160;2024-03-08T08:35:36;1.80;99.90
5705;DHT22;2877;48.238;11.160;2024-03-08T08:38:03;1.90;99.90
5705;DHT22;2877;48.238;11.160;2024-03-08T08:40:29;2.20;99.90
5705;DHT22;2877;48.238;11.160;2024-03-08T08:42:56;2.30;99.90
5705;DHT22;2877;48.238;11.160;2024-03-08T08:45:23;2.50;99.90
5705;DHT22;2877;48.238;11.160;2024-03-08T08:47:48;2.60;99.90
5705;DHT22;2877;48.238;11.160;2024-03-08T08:50:15;2.60;99.90
5705;DHT22;2877;48.238;11.160;2024-03-08T08:52:41;2.70;99.90
5705;DHT22;2877;48.238;11.160;2024-03-08T08:55:10;2.80;99.90
5705;DHT22;2877;48.238;11.160;2024-03-08T08:57:40;2.90;99.90
5705;DHT22;2877;48.238;11.160;2024-03-08T09:00:06;3.20;99.90
5705;DHT22;2877;48.238;11.160;2024-03-08T09:02:33;3.60;99.90
5705;DHT22;2877;48.238;11.160;2024-03-08T09:04:59;3.70;99.90
5705;DHT22;2877;48.238;11.160;2024-03-08T09:07:26;3.90;99.90
5705;DHT22;2877;48.238;11.160;2024-03-08T09:09:53;3.90;99.90
5705;DHT22;2877;48.238;11.160;2024-03-08T09:12:22;4.00;99.90
5705;DHT22;2877;48.238;11.160;2024-03-08T09:14:48;4.10;99.90
5705;DHT22;2877;48.238;11.160;2024-03-08T09:17:14;4.00;99.90
5705;DHT22;2877;48.238;11.160;2024-03-08T09:19:43;3.90;99.90
5705;DHT22;2877;48.238;11.160;2024-03-08T09:22:08;3.80;99.90
5705;DHT22;2877;48.238;11.160;2024-03-08T09:24:34;3.60;99.90
5705;DHT22;2877;48.238;11.160;2024-03-08T09:26:59;3.60;99.90
5705;DHT22;2877;48.238;11.160;2024-03-08T09:29:25;3.60;99.90
5705;DHT22;2877;48.238;11.160;2024-03-08T09:31:50;3.60;99.90
5705;DHT22;2877;48.238;11.160;2024-03-08T09:34:17;3.60;99.90
5705;DHT22;2877;48.238;11.160;2024-03-08T09:36:44;3.80;99.90
5705;DHT22;2877;48.238;11.160;2024-03-08T09:39:09;4.30;99.90
5705;DHT22;2877;48.238;11.160;2024-03-08T09:41:39;4.50;99.90
5705;DHT22;2877;48.238;11.160;2024-03-08T09:44:04;4.50;99.90
5705;DHT22;2877;48.238;11.160;2024-03-08T09:46:30;4.50;99.90
5705;DHT22;2877;48.238;11.160;2024-03-08T09:48:56;4.50;99.90
5705;DHT22;2877;48.238;11.160;2024-03-08T09:51:27;4.60;99.90
5705;DHT22;2877;48.238;11.160;2024-03-08T09:53:53;4.80;99.90
5705;DHT22;2877;48.238;11.160;2024-03-08T09:56:19;4.60;99.90
5705;DHT22;2877;48.238;11.160;2024-03-08T09:58:45;4.70;99.90
5705;DHT22;2877;48.238;11.160;2024-03-08T10:01:33;4.90;99.90
5705;DHT22;2877;48.238;11.160;2024-03-08T10:03:59;5.40;99.90
5705;DHT22;2877;48.238;11.160;2024-03-08T10:06:24;5.60;99.90
5705;DHT22;2877;48.238;11.160;2024-03-08T10:08:50;5.70;99.90
5705;DHT22;2877;48.238;11.160;2024-03-08T10:11:19;5.80;99.90
5705;DHT22;2877;48.238;11.160;2024-03-08T10:13:47;5.80;99.90
5705;DHT22;2877;48.238;11.160;2024-03-08T10:16:13;5.70;99.90
5705;DHT22;2877;48.238;11.160;2024-03-08T10:18:38;5.50;99.90
5705;DHT22;2877;48.238;11.160;2024-03-08T10:21:06;5.40;99.90
5705;DHT22;2877;48.238;11.160;2024-03-08T10:23:32;5.40;99.90
5705;DHT22;2877;48.238;11.160;2024-03-08T10:26:09;5.50;99.90
5705;DHT22;2877;48.238;11.160;2024-03-08T10:28:35;5.70;99.90
5705;DHT22;2877;48.238;11.160;2024-03-08T10:31:00;5.70;99.90
5705;DHT22;2877;48.238;11.160;2024-03-08T10:33:26;5.70;99.90
5705;DHT22;2877;48.238;11.160;2024-03-08T10:35:52;5.70;99.90
5705;DHT22;2877;48.238;11.160;2024-03-08T10:38:20;5.80;99.90
5705;DHT22;2877;48.238;11.160;2024-03-08T10:40:47;5.90;99.90
5705;DHT22;2877;48.238;11.160;2024-03-08T10:43:24;5.90;99.90
5705;DHT22;2877;48.238;11.160;2024-03-08T10:46:16;5.90;99.90
5705;DHT22;2877;48.238;11.160;2024-03-08T10:48:49;5.90;99.90
5705;DHT22;2877;48.238;11.160;2024-03-08T10:51:15;6.00;99.90
5705;DHT22;2877;48.238;11.160;2024-03-08T10:53:41;6.10;99.90
5705;DHT22;2877;48.238;11.160;2024-03-08T10:56:07;6.20;99.90
5705;DHT22;2877;48.238;11.160;2024-03-08T10:58:36;6.20;99.90
5705;DHT22;2877;48.238;11.160;2024-03-08T11:01:02;6.30;99.90
5705;DHT22;2877;48.238;11.160;2024-03-08T11:03:47;6.40;99.90
5705;DHT22;2877;48.238;11.160;2024-03-08T11:06:17;6.50;99.90
5705;DHT22;2877;48.238;11.160;2024-03-08T11:08:46;6.50;99.90
5705;DHT22;2877;48.238;11.160;2024-03-08T11:11:31;6.60;99.90
5705;DHT22;2877;48.238;11.160;2024-03-08T11:13:58;6.80;99.90
5705;DHT22;2877;48.238;11.160;2024-03-08T11:21:44;6.80;99.90
5705;DHT22;2877;48.238;11.160;2024-03-08T11:24:11;6.80;99.90
5705;DHT22;2877;48.238;11.160;2024-03-08T11:26:39;6.80;99.90
5705;DHT22;2877;48.238;11.160;2024-03-08T11:34:32;7.30;99.90
5705;DHT22;2877;48.238;11.160;2024-03-08T11:36:58;7.40;99.90
5705;DHT22;2877;48.238;11.160;2024-03-08T11:39:25;7.30;99.90
5705;DHT22;2877;48.238;11.160;2024-03-08T11:41:50;7.40;99.90
5705;DHT22;2877;48.238;11.160;2024-03-08T11:44:17;7.50;99.90
5705;DHT22;2877;48.238;11.160;2024-03-08T11:46:43;7.50;99.90
5705;DHT22;2877;48.238;11.160;2024-03-08T11:49:13;7.60;99.90
5705;DHT22;2877;48.238;11.160;2024-03-08T11:51:40;7.50;99.90
5705;DHT22;2877;48.238;11.160;2024-03-08T11:54:06;7.50;99.90
5705;DHT22;2877;48.238;11.160;2024-03-08T11:56:32;7.50;99.90
5705;DHT22;2877;48.238;11.160;2024-03-08T11:58:57;7.70;99.90
5705;DHT22;2877;48.238;11.160;2024-03-08T12:01:23;7.90;99.90
5705;DHT22;2877;48.238;11.160;2024-03-08T12:03:53;8.20;99.90
5705;DHT22;2877;48.238;11.160;2024-03-08T12:06:19;8.40;99.90
5705;DHT22;2877;48.238;11.160;2024-03-08T12:08:46;8.60;99.90
5705;DHT22;2877;48.238;11.160;2024-03-08T12:11:17;8.60;99.90
5705;DHT22;2877;48.238;11.160;2024-03-08T12:13:44;8.70;99.90
5705;DHT22;2877;48.238;11.160;2024-03-08T12:16:12;8.90;99.90
5705;DHT22;2877;48.238;11.160;2024-03-08T12:18:38;9.10;99.90
5705;DHT22;2877;48.238;11.160;2024-03-08T12:21:08;9.40;99.90
5705;DHT22;2877;48.238;11.160;2024-03-08T12:23:34;9.30;99.90
5705;DHT22;2877;48.238;11.160;2024-03-08T12:26:17;9.50;99.90
5705;DHT22;2877;48.238;11.160;2024-03-08T12:28:44;9.50;99.90
5705;DHT22;2877;48.238;11.160;2024-03-08T12:31:12;9.50;99.90
5705;DHT22;2877;48.238;11.160;2024-03-08T12:33:48;9.50;99.90
5705;DHT22;2877;48.238;11.160;2024-03-08T12:36:15;9.50;99.90
5705;DHT22;2877;48.238;11.160;2024-03-08T12:38:46;9.70;99.90
5705;DHT22;2877;48.238;11.160;2024-03-08T12:41:17;9.70;99.90
5705;DHT22;2877;48.238;11.160;2024-03-08T12:43:43;9.80;99.90
5705;DHT22;2877;48.238;11.160;2024-03-08T12:46:17;9.90;99.90
5705;DHT22;2877;48.238;11.160;2024-03-08T12:48:43;10.00;99.90
5705;DHT22;2877;48.238;11.160;2024-03-08T12:51:12;10.10;99.90
5705;DHT22;2877;48.238;11.160;2024-03-08T12:53:38;10.50;99.90
5705;DHT22;2877;48.238;11.160;2024-03-08T12:56:06;10.90;99.90
5705;DHT22;2877;48.238;11.160;2024-03-08T12:58:34;10.90;99.90
5705;DHT22;2877;48.238;11.160;2024-03-08T13:00:59;11.00;99.90
5705;DHT22;2877;48.238;11.160;2024-03-08T13:03:25;11.00;99.90
5705;DHT22;2877;48.238;11.160;2024-03-08T13:05:51;11.10;99.90
5705;DHT22;2877;48.238;11.160;2024-03-08T13:08:17;11.20;99.90
5705;DHT22;2877;48.238;11.160;2024-03-08T13:10:43;11.30;99.90
5705;DHT22;2877;48.238;11.160;2024-03-08T13:13:09;11.40;99.90
5705;DHT22;2877;48.238;11.160;2024-03-08T13:15:35;11.60;99.90
5705;DHT22;2877;48.238;11.160;2024-03-08T13:18:01;11.60;99.90
5705;DHT22;2877;48.238;11.160;2024-03-08T13:20:27;11.40;99.90
5705;DHT22;2877;48.238;11.160;2024-03-08T13:22:54;11.40;99.90
5705;DHT22;2877;48.238;11.160;2024-03-08T13:25:20;11.60;99.90
5705;DHT22;2877;48.238;11.160;2024-03-08T13:27:46;11.50;99.90
5705;DHT22;2877;48.238;11.160;2024-03-08T13:30:13;11.40;99.90
5705;DHT22;2877;48.238;11.160;2024-03-08T13:32:42;11.40;99.90
5705;DHT22;2877;48.238;11.160;2024-03-08T13:35:11;11.30;99.90
5705;DHT22;2877;48.238;11.160;2024-03-08T13:37:40;11.50;99.90
5705;DHT22;2877;48.238;11.160;2024-03-08T13:40:06;11.60;99.90
5705;DHT22;2877;48.238;11.160;2024-03-08T13:42:37;11.30;99.90
5705;DHT22;2877;48.238;11.160;2024-03-08T13:45:04;10.90;99.90
5705;DHT22;2877;48.238;11.160;2024-03-08T13:47:31;10.40;99.90
5705;DHT22;2877;48.238;11.160;2024-03-08T13:49:56;10.10;99.90
5705;DHT22;2877;48.238;11.160;2024-03-08T13:52:22;9.80;99.90
5705;DHT22;2877;48.238;11.160;2024-03-08T13:54:50;9.60;99.90
5705;DHT22;2877;48.238;11.160;2024-03-08T13:57:16;9.40;99.90
5705;DHT22;2877;48.238;11.160;2024-03-08T13:59:43;9.20;99.90
5705;DHT22;2877;48.238;11.160;2024-03-08T14:02:09;9.10;99.90
5705;DHT22;2877;48.238;11.160;2024-03-08T14:04:38;9.00;99.90
5705;DHT22;2877;48.238;11.160;2024-03-08T14:07:05;9.00;99.90
5705;DHT22;2877;48.238;11.160;2024-03-08T14:09:34;9.10;99.90
5705;DHT22;2877;48.238;11.160;2024-03-08T14:12:03;9.00;99.90
5705;DHT22;2877;48.238;11.160;2024-03-08T14:14:33;9.00;99.90
5705;DHT22;2877;48.238;11.160;2024-03-08T14:17:03;9.00;99.90
5705;DHT22;2877;48.238;11.160;2024-03-08T14:19:29;9.00;99.90
5705;DHT22;2877;48.238;11.160;2024-03-08T14:21:59;8.90;99.90
5705;DHT22;2877;48.238;11.160;2024-03-08T14:24:25;8.80;99.90
5705;DHT22;2877;48.238;11.160;2024-03-08T14:26:51;8.80;99.90
5705;DHT22;2877;48.238;11.160;2024-03-08T14:29:17;8.80;99.90
5705;DHT22;2877;48.238;11.160;2024-03-08T14:31:44;8.80;99.90
5705;DHT22;2877;48.238;11.160;2024-03-08T14:34:10;8.80;99.90
5705;DHT22;2877;48.238;11.160;2024-03-08T14:36:36;8.80;99.90
5705;DHT22;2877;48.238;11.160;2024-03-08T14:39:03;8.80;99.90
5705;DHT22;2877;48.238;11.160;2024-03-08T14:41:28;8.80;99.90
5705;DHT22;2877;48.238;11.160;2024-03-08T14:43:55;8.80;99.90
5705;DHT22;2877;48.238;11.160;2024-03-08T14:46:22;8.80;99.90
5705;DHT22;2877;48.238;11.160;2024-03-08T14:48:52;8.80;99.90
5705;DHT22;2877;48.238;11.160;2024-03-08T14:51:18;8.80;99.90
5705;DHT22;2877;48.238;11.160;2024-03-08T14:53:47;8.80;99.90
5705;DHT22;2877;48.238;11.160;2024-03-08T14:56:13;8.80;99.90
5705;DHT22;2877;48.238;11.160;2024-03-08T14:58:45;8.80;99.90
5705;DHT22;2877;48.238;11.160;2024-03-08T15:01:12;8.80;99.90
5705;DHT22;2877;48.238;11.160;2024-03-08T15:03:39;8.80;99.90
5705;DHT22;2877;48.238;11.160;2024-03-08T15:06:05;8.80;99.90
5705;DHT22;2877;48.238;11.160;2024-03-08T15:08:36;8.80;99.90
5705;DHT22;2877;48.238;11.160;2024-03-08T15:11:02;8.80;99.90
5705;DHT22;2877;48.238;11.160;2024-03-08T15:13:28;8.80;99.90
5705;DHT22;2877;48.238;11.160;2024-03-08T15:15:59;8.70;99.90
5705;DHT22;2877;48.238;11.160;2024-03-08T15:18:25;8.70;99.90
5705;DHT22;2877;48.238;11.160;2024-03-08T15:20:52;8.70;99.90
5705;DHT22;2877;48.238;11.160;2024-03-08T15:23:18;8.60;99.90
5705;DHT22;2877;48.238;11.160;2024-03-08T15:25:46;8.50;99.90
5705;DHT22;2877;48.238;11.160;2024-03-08T15:28:17;8.50;99.90
5705;DHT22;2877;48.238;11.160;2024-03-08T15:30:46;8.40;99.90
5705;DHT22;2877;48.238;11.160;2024-03-08T15:33:14;8.50;99.90
5705;DHT22;2877;48.238;11.160;2024-03-08T15:35:41;8.40;99.90
5705;DHT22;2877;48.238;11.160;2024-03-08T15:38:07;8.40;99.90
5705;DHT22;2877;48.238;11.160;2024-03-08T15:40:33;8.30;99.90
5705;DHT22;2877;48.238;11.160;2024-03-08T15:43:01;8.30;99.90
5705;DHT22;2877;48.238;11.160;2024-03-08T15:45:26;8.30;99.90
5705;DHT22;2877;48.238;11.160;2024-03-08T15:47:52;8.30;99.90
5705;DHT22;2877;48.238;11.160;2024-03-08T15:50:18;8.20;99.90
5705;DHT22;2877;48.238;11.160;2024-03-08T15:52:46;8.10;99.90
5705;DHT22;2877;48.238;11.160;2024-03-08T15:55:19;8.10;99.90
5705;DHT22;2877;48.238;11.160;2024-03-08T15:57:47;8.00;99.90
5705;DHT22;2877;48.238;11.160;2024-03-08T16:00:14;8.00;99.90
5705;DHT22;2877;48.238;11.160;2024-03-08T16:02:43;8.00;99.90
5705;DHT22;2877;48.238;11.160;2024-03-08T16:05:09;8.00;99.90